createdAt,value
2017-10-16T00:01:49.589Z,13.33
2017-10-16T00:04:16.004Z,15.27
2017-10-16T00:06:42.416Z,13.13
2017-10-16T00:09:08.817Z,12.63
2017-10-16T00:11:35.223Z,12.63
2017-10-16T00:14:01.625Z,13.37
2017-10-16T00:16:28.789Z,13.53
2017-10-16T00:18:55.195Z,14.00
2017-10-16T00:21:21.609Z,12.80
2017-10-16T00:23:48.046Z,14.00
2017-10-16T00:26:14.448Z,13.30
2017-10-16T00:28:40.900Z,13.10
2017-10-16T00:31:07.333Z,15.20
2017-10-16T00:33:33.734Z,12.90
2017-10-16T00:36:00.138Z,14.37
2017-10-16T00:38:27.299Z,13.63
2017-10-16T00:40:53.700Z,14.00
2017-10-16T00:43:20.139Z,14.33
2017-10-16T00:45:47.360Z,13.03
2017-10-16T00:48:13.788Z,13.17
2017-10-16T00:50:40.945Z,13.13
2017-10-16T00:53:07.404Z,12.27
2017-10-16T00:55:33.849Z,12.20
2017-10-16T00:58:01.037Z,13.80
2017-10-16T01:00:27.506Z,13.97
2017-10-16T01:02:53.932Z,13.20
2017-10-16T01:05:20.393Z,12.73
2017-10-16T01:07:46.828Z,13.70
2017-10-16T01:10:13.984Z,13.43
2017-10-16T01:12:41.175Z,12.77
2017-10-16T01:15:07.604Z,13.63
2017-10-16T01:17:34.043Z,21.60
2017-10-16T01:20:01.276Z,12.17
2017-10-16T01:22:27.727Z,14.80
2017-10-16T01:24:54.181Z,12.43
2017-10-16T01:27:20.680Z,16.40
2017-10-16T01:29:47.153Z,12.87
2017-10-16T01:32:13.621Z,11.67
2017-10-16T01:34:40.161Z,11.47
2017-10-16T01:37:07.334Z,13.13
2017-10-16T01:39:33.827Z,13.43
2017-10-16T01:42:00.248Z,12.00
2017-10-16T01:44:26.709Z,13.90
2017-10-16T01:46:53.880Z,11.93
2017-10-16T01:49:20.353Z,13.60
2017-10-16T01:51:46.837Z,11.97
2017-10-16T01:54:13.311Z,12.67
2017-10-16T01:56:40.021Z,12.73
2017-10-16T01:59:06.469Z,12.80
2017-10-16T02:01:32.887Z,12.90
2017-10-16T02:03:59.369Z,13.40
2017-10-16T02:06:25.802Z,12.83
2017-10-16T02:08:52.232Z,12.13
2017-10-16T02:11:18.632Z,13.60
2017-10-16T02:13:45.056Z,12.90
2017-10-16T02:16:11.449Z,13.50
2017-10-16T02:18:37.875Z,13.00
2017-10-16T02:21:04.264Z,13.00
2017-10-16T02:23:30.959Z,13.20
2017-10-16T02:25:57.449Z,12.63
2017-10-16T02:28:23.871Z,12.53
2017-10-16T02:30:50.260Z,12.63
2017-10-16T02:33:17.428Z,12.97
2017-10-16T02:35:43.860Z,10.97
2017-10-16T02:38:10.251Z,12.70
2017-10-16T02:40:36.693Z,11.37
2017-10-16T02:43:03.108Z,12.10
2017-10-16T02:45:29.548Z,13.37
2017-10-16T02:47:55.960Z,13.37
2017-10-16T02:50:22.389Z,11.93
2017-10-16T02:52:48.813Z,12.10
2017-10-16T02:55:15.232Z,10.67
2017-10-16T02:57:41.660Z,13.20
2017-10-16T03:00:08.064Z,12.53
2017-10-16T03:02:35.208Z,12.57
2017-10-16T03:05:01.652Z,11.47
2017-10-16T03:07:28.780Z,10.47
2017-10-16T03:09:55.160Z,11.97
2017-10-16T03:12:21.585Z,17.80
2017-10-16T03:14:47.992Z,11.87
2017-10-16T03:17:14.432Z,12.53
2017-10-16T03:19:41.594Z,12.27
2017-10-16T03:22:08.729Z,13.53
2017-10-16T03:24:35.177Z,11.40
2017-10-16T03:27:02.333Z,15.37
2017-10-16T03:29:29.528Z,13.20
2017-10-16T03:31:55.963Z,12.13
2017-10-16T03:34:22.447Z,13.10
2017-10-16T03:36:49.586Z,15.17
2017-10-16T03:39:16.752Z,14.23
2017-10-16T03:41:43.159Z,13.57
2017-10-16T03:44:09.558Z,12.10
2017-10-16T03:46:35.955Z,12.30
2017-10-16T03:49:02.397Z,14.47
2017-10-16T03:51:28.817Z,11.87
2017-10-16T03:53:55.220Z,12.77
2017-10-16T03:56:21.640Z,21.50
2017-10-16T03:58:48.045Z,12.73
2017-10-16T04:01:14.468Z,12.93
2017-10-16T04:03:40.835Z,12.80
2017-10-16T04:06:07.264Z,12.57
2017-10-16T04:08:33.702Z,12.20
2017-10-16T04:11:00.128Z,12.13
2017-10-16T04:13:26.582Z,12.10
2017-10-16T04:15:53.067Z,12.77
2017-10-16T04:18:19.825Z,13.27
2017-10-16T04:20:46.257Z,13.00
2017-10-16T04:23:12.660Z,11.50
2017-10-16T04:25:39.147Z,13.63
2017-10-16T04:28:06.384Z,13.00
2017-10-16T04:30:33.040Z,13.10
2017-10-16T04:32:59.496Z,11.37
2017-10-16T04:35:26.957Z,12.97
2017-10-16T04:37:54.232Z,12.27
2017-10-16T04:40:20.648Z,13.33
2017-10-16T04:42:47.107Z,12.77
2017-10-16T04:45:13.527Z,12.90
2017-10-16T04:47:39.963Z,13.63
2017-10-16T04:50:07.136Z,11.80
2017-10-16T04:52:33.585Z,10.80
2017-10-16T04:55:00.274Z,12.50
2017-10-16T04:57:26.807Z,12.03
2017-10-16T04:59:54.064Z,11.70
2017-10-16T05:02:20.473Z,13.57
2017-10-16T05:04:47.621Z,13.70
2017-10-16T05:07:14.033Z,12.97
2017-10-16T05:09:41.179Z,14.40
2017-10-16T05:12:07.611Z,13.83
2017-10-16T05:14:34.125Z,15.10
2017-10-16T05:17:00.652Z,16.83
2017-10-16T05:19:27.081Z,18.07
2017-10-16T05:21:53.494Z,20.77
2017-10-16T05:24:19.917Z,19.33
2017-10-16T05:26:47.092Z,16.10
2017-10-16T05:29:13.546Z,14.90
2017-10-16T05:31:39.968Z,13.87
2017-10-16T05:34:06.413Z,14.20
2017-10-16T05:36:32.899Z,14.63
2017-10-16T05:39:00.081Z,15.40
2017-10-16T05:41:27.280Z,14.20
2017-10-16T05:43:54.473Z,13.00
2017-10-16T05:46:21.017Z,13.30
2017-10-16T05:48:47.519Z,17.17
2017-10-16T05:51:14.697Z,27.93
2017-10-16T05:53:41.099Z,18.63
2017-10-16T05:56:08.514Z,20.13
2017-10-16T05:58:35.719Z,17.43
2017-10-16T06:01:02.187Z,16.07
2017-10-16T06:03:28.667Z,19.30
2017-10-16T06:05:55.089Z,17.30
2017-10-16T06:08:21.557Z,16.13
2017-10-16T06:10:47.992Z,15.63
2017-10-16T06:13:14.436Z,15.20
2017-10-16T06:15:40.915Z,15.67
2017-10-16T06:18:07.449Z,15.83
2017-10-16T06:20:33.918Z,15.10
2017-10-16T06:23:01.185Z,14.40
2017-10-16T06:25:27.652Z,15.87
2017-10-16T06:27:54.104Z,19.10
2017-10-16T06:30:20.573Z,18.50
2017-10-16T06:32:47.775Z,17.90
2017-10-16T06:35:14.211Z,19.00
2017-10-16T06:37:41.444Z,19.93
2017-10-16T06:40:07.861Z,18.10
2017-10-16T06:42:34.332Z,28.13
2017-10-16T06:45:00.785Z,23.00
2017-10-16T06:47:27.265Z,18.63
2017-10-16T06:49:53.759Z,17.63
2017-10-16T06:52:20.196Z,18.23
2017-10-16T06:54:46.616Z,20.43
2017-10-16T06:57:13.079Z,18.17
2017-10-16T06:59:40.236Z,19.40
2017-10-16T07:02:06.668Z,16.90
2017-10-16T07:04:33.108Z,16.50
2017-10-16T07:06:59.522Z,21.00
2017-10-16T07:09:26.703Z,20.67
2017-10-16T07:11:53.156Z,18.70
2017-10-16T07:14:19.619Z,22.00
2017-10-16T07:16:46.089Z,16.23
2017-10-16T07:19:12.557Z,17.90
2017-10-16T07:21:39.007Z,20.87
2017-10-16T07:24:07.501Z,18.43
2017-10-16T07:26:34.169Z,22.40
2017-10-16T07:29:01.372Z,18.97
2017-10-16T07:31:27.810Z,17.13
2017-10-16T07:33:54.289Z,19.30
2017-10-16T07:36:20.747Z,17.70
2017-10-16T07:38:47.176Z,17.07
2017-10-16T07:41:13.608Z,20.73
2017-10-16T07:43:40.048Z,19.73
2017-10-16T07:46:06.478Z,17.37
2017-10-16T07:48:32.877Z,19.77
2017-10-16T07:51:00.036Z,16.97
2017-10-16T07:53:27.159Z,19.17
2017-10-16T07:55:53.604Z,18.53
2017-10-16T07:58:20.737Z,19.97
2017-10-16T08:00:47.149Z,18.40
2017-10-16T08:03:13.645Z,16.93
2017-10-16T08:05:40.076Z,17.97
2017-10-16T08:08:06.508Z,18.53
2017-10-16T08:10:32.915Z,16.13
2017-10-16T08:12:59.377Z,17.40
2017-10-16T08:15:26.635Z,18.37
2017-10-16T08:17:53.067Z,15.90
2017-10-16T08:20:22.057Z,17.20
2017-10-16T08:22:50.754Z,19.00
2017-10-16T08:25:18.879Z,16.50
2017-10-16T08:27:48.356Z,16.77
2017-10-16T08:30:16.569Z,20.10
2017-10-16T08:32:45.808Z,14.70
2017-10-16T08:35:15.472Z,19.50
2017-10-16T08:37:43.325Z,16.73
2017-10-16T08:40:09.823Z,16.47
2017-10-16T08:42:36.353Z,15.63
2017-10-16T08:45:02.804Z,17.57
2017-10-16T08:47:29.292Z,18.20
2017-10-16T08:49:56.512Z,18.10
2017-10-16T08:52:22.989Z,16.17
2017-10-16T08:54:49.486Z,16.63
2017-10-16T08:57:15.962Z,16.93
2017-10-16T08:59:42.415Z,15.40
2017-10-16T09:02:08.855Z,16.87
2017-10-16T09:04:35.346Z,18.30
2017-10-16T09:07:02.593Z,14.27
2017-10-16T09:09:29.804Z,15.03
2017-10-16T09:11:56.248Z,16.20
2017-10-16T09:14:22.719Z,16.13
2017-10-16T09:16:49.905Z,15.83
2017-10-16T09:19:16.383Z,14.30
2017-10-16T09:21:42.830Z,19.97
2017-10-16T09:24:09.328Z,18.47
2017-10-16T09:26:36.525Z,17.50
2017-10-16T09:29:03.730Z,20.37
2017-10-16T09:31:30.208Z,15.37
2017-10-16T09:33:57.372Z,17.03
2017-10-16T09:36:30.892Z,16.13
2017-10-16T09:38:57.348Z,16.87
2017-10-16T09:41:23.794Z,16.43
2017-10-16T09:43:50.248Z,15.53
2017-10-16T09:46:17.436Z,18.10
2017-10-16T09:48:43.880Z,14.60
2017-10-16T09:51:10.340Z,15.30
2017-10-16T09:53:36.840Z,14.13
2017-10-16T09:56:03.290Z,15.77
2017-10-16T09:58:29.752Z,14.57
2017-10-16T10:00:56.952Z,15.23
2017-10-16T10:03:23.424Z,14.87
2017-10-16T10:05:49.909Z,14.93
2017-10-16T10:08:16.343Z,14.97
2017-10-16T10:10:42.796Z,15.70
2017-10-16T10:13:09.243Z,15.57
2017-10-16T10:15:39.726Z,14.80
2017-10-16T10:18:06.190Z,13.77
2017-10-16T10:20:32.629Z,14.13
2017-10-16T10:22:59.096Z,14.50
2017-10-16T10:25:25.536Z,12.73
2017-10-16T10:27:51.961Z,13.73
2017-10-16T10:30:18.377Z,13.17
2017-10-16T10:32:44.816Z,12.87
2017-10-16T10:35:11.219Z,13.90
2017-10-16T10:37:37.617Z,12.77
2017-10-16T10:40:04.787Z,13.33
2017-10-16T10:42:31.183Z,13.60
2017-10-16T10:44:57.623Z,13.13
2017-10-16T10:47:24.774Z,12.60
2017-10-16T10:49:51.948Z,13.27
2017-10-16T10:52:18.348Z,14.20
2017-10-16T10:54:44.808Z,13.20
2017-10-16T10:57:11.245Z,12.37
2017-10-16T10:59:37.723Z,15.80
2017-10-16T11:02:04.193Z,12.90
2017-10-16T11:04:31.340Z,12.73
2017-10-16T11:06:58.536Z,12.73
2017-10-16T11:09:25.009Z,12.20
2017-10-16T11:11:51.423Z,12.00
2017-10-16T11:14:17.903Z,12.60
2017-10-16T11:16:45.077Z,14.43
2017-10-16T11:19:11.512Z,12.20
2017-10-16T11:21:37.943Z,11.70
2017-10-16T11:24:04.456Z,12.97
2017-10-16T11:26:31.636Z,19.00
2017-10-16T11:28:58.112Z,11.73
2017-10-16T11:31:24.577Z,12.60
2017-10-16T11:33:51.813Z,11.73
2017-10-16T11:36:19.037Z,11.27
2017-10-16T11:38:45.508Z,10.73
2017-10-16T11:41:12.736Z,10.57
2017-10-16T11:43:39.220Z,11.53
2017-10-16T11:46:05.648Z,12.10
2017-10-16T11:48:32.095Z,12.87
2017-10-16T11:50:58.581Z,11.47
2017-10-16T11:53:25.820Z,10.57
2017-10-16T11:55:52.267Z,13.83
2017-10-16T11:58:18.728Z,12.80
2017-10-16T12:00:45.964Z,12.37
2017-10-16T12:03:13.140Z,11.37
2017-10-16T12:05:39.595Z,10.73
2017-10-16T12:08:06.084Z,10.83
2017-10-16T12:10:33.307Z,10.10
2017-10-16T12:12:59.745Z,11.20
2017-10-16T12:15:26.211Z,12.07
2017-10-16T12:17:53.419Z,11.40
2017-10-16T12:20:19.861Z,11.47
2017-10-16T12:22:46.281Z,11.40
2017-10-16T12:25:12.795Z,10.43
2017-10-16T12:27:39.228Z,10.50
2017-10-16T12:30:05.697Z,9.70
2017-10-16T12:32:32.164Z,10.53
2017-10-16T12:34:59.353Z,9.83
2017-10-16T12:37:25.841Z,11.40
2017-10-16T12:39:53.023Z,9.93
2017-10-16T12:42:19.449Z,10.40
2017-10-16T12:44:45.910Z,9.93
2017-10-16T12:47:12.357Z,11.20
2017-10-16T12:49:38.821Z,9.93
2017-10-16T12:52:06.006Z,9.73
2017-10-16T12:54:32.488Z,10.30
2017-10-16T12:56:58.937Z,9.03
2017-10-16T12:59:26.136Z,8.90
2017-10-16T13:01:52.629Z,8.13
2017-10-16T13:04:19.824Z,8.80
2017-10-16T13:06:46.305Z,9.30
2017-10-16T13:09:12.748Z,10.50
2017-10-16T13:11:39.968Z,10.77
2017-10-16T13:14:06.423Z,11.90
2017-10-16T13:16:33.630Z,9.87
2017-10-16T13:19:00.980Z,9.27
2017-10-16T13:21:27.464Z,11.57
2017-10-16T13:23:55.741Z,10.37
2017-10-16T13:26:22.941Z,11.23
2017-10-16T13:28:49.421Z,9.73
2017-10-16T13:31:15.879Z,10.77
2017-10-16T13:33:42.374Z,9.70
2017-10-16T13:36:08.817Z,10.17
2017-10-16T13:38:35.312Z,11.80
2017-10-16T13:41:01.807Z,10.77
2017-10-16T13:43:29.053Z,9.13
2017-10-16T13:45:56.285Z,12.33
2017-10-16T13:48:22.795Z,10.63
2017-10-16T13:50:49.288Z,13.60
2017-10-16T13:53:16.549Z,9.40
2017-10-16T13:55:43.101Z,10.47
2017-10-16T13:58:09.548Z,10.97
2017-10-16T14:00:36.005Z,9.07
2017-10-16T14:03:02.456Z,9.43
2017-10-16T14:05:29.653Z,10.20
2017-10-16T14:07:56.137Z,12.73
2017-10-16T14:10:22.604Z,11.00
2017-10-16T14:12:49.067Z,12.80
2017-10-16T14:15:15.529Z,9.83
2017-10-16T14:17:42.008Z,10.10
2017-10-16T14:20:08.463Z,9.97
2017-10-16T14:22:34.931Z,11.70
2017-10-16T14:25:01.435Z,10.67
2017-10-16T14:27:27.907Z,9.90
2017-10-16T14:29:55.125Z,10.03
2017-10-16T14:32:21.599Z,9.80
2017-10-16T14:34:48.779Z,9.03
2017-10-16T14:37:15.252Z,10.03
2017-10-16T14:39:41.698Z,10.30
2017-10-16T14:42:08.168Z,10.43
2017-10-16T14:44:34.641Z,9.37
2017-10-16T14:47:01.087Z,9.03
2017-10-16T14:49:27.560Z,10.37
2017-10-16T14:51:54.068Z,11.10
2017-10-16T14:54:20.564Z,9.87
2017-10-16T14:56:46.991Z,9.50
2017-10-16T14:59:13.420Z,10.40
2017-10-16T15:01:39.965Z,9.27
2017-10-16T15:04:06.432Z,9.03
2017-10-16T15:06:32.920Z,9.63
2017-10-16T15:08:59.440Z,10.30
2017-10-16T15:11:27.309Z,9.23
2017-10-16T15:13:53.845Z,9.52
2017-10-16T15:16:20.412Z,8.97
2017-10-16T15:18:46.896Z,8.23
2017-10-16T15:21:13.332Z,9.47
2017-10-16T15:23:41.010Z,9.67
2017-10-16T15:26:07.720Z,8.57
2017-10-16T15:28:34.480Z,9.47
2017-10-16T15:31:01.416Z,10.90
2017-10-16T15:33:28.099Z,10.60
2017-10-16T15:35:54.616Z,9.80
2017-10-16T15:38:21.103Z,9.90
2017-10-16T15:40:47.896Z,10.23
2017-10-16T15:43:14.418Z,12.73
2017-10-16T15:45:40.976Z,9.83
2017-10-16T15:48:07.441Z,10.60
2017-10-16T15:50:33.915Z,10.50
2017-10-16T15:53:01.104Z,10.77
2017-10-16T15:55:27.572Z,10.40
2017-10-16T15:57:54.008Z,11.80
2017-10-16T16:00:20.489Z,9.30
2017-10-16T16:02:46.923Z,12.57
2017-10-16T16:05:13.782Z,15.13
2017-10-16T16:07:40.632Z,11.43
2017-10-16T16:10:07.897Z,11.47
2017-10-16T16:12:34.388Z,12.00
2017-10-16T16:15:01.652Z,12.53
2017-10-16T16:17:28.880Z,11.53
2017-10-16T16:19:55.473Z,14.60
2017-10-16T16:22:22.964Z,13.50
2017-10-16T16:24:50.196Z,15.67
2017-10-16T16:27:16.640Z,14.13
2017-10-16T16:29:43.867Z,14.53
2017-10-16T16:32:10.348Z,14.97
2017-10-16T16:34:37.608Z,17.83
2017-10-16T16:37:04.117Z,15.77
2017-10-16T16:39:31.313Z,13.10
2017-10-16T16:41:57.799Z,16.00
2017-10-16T16:44:24.265Z,17.37
2017-10-16T16:46:50.745Z,16.37
2017-10-16T16:49:17.187Z,15.20
2017-10-16T16:51:43.656Z,15.53
2017-10-16T16:54:10.836Z,16.30
2017-10-16T16:56:37.249Z,16.47
2017-10-16T16:59:03.748Z,17.77
2017-10-16T17:01:30.225Z,15.80
2017-10-16T17:03:56.732Z,15.30
2017-10-16T17:06:23.924Z,17.30
2017-10-16T17:08:50.425Z,17.00
2017-10-16T17:11:17.674Z,14.87
2017-10-16T17:13:44.867Z,14.27
2017-10-16T17:16:11.450Z,13.97
2017-10-16T17:18:38.656Z,15.17
2017-10-16T17:21:05.356Z,14.97
2017-10-16T17:23:31.909Z,14.77
2017-10-16T17:25:58.384Z,14.60
2017-10-16T17:28:24.850Z,14.87
2017-10-16T17:30:52.044Z,15.33
2017-10-16T17:33:18.480Z,14.53
2017-10-16T17:35:44.924Z,14.30
2017-10-16T17:38:11.356Z,14.53
2017-10-16T17:40:37.836Z,17.87
2017-10-16T17:43:05.047Z,16.60
2017-10-16T17:45:31.527Z,17.13
2017-10-16T17:47:58.669Z,20.10
2017-10-16T17:50:25.865Z,19.47
2017-10-16T17:52:52.309Z,18.63
2017-10-16T17:55:18.769Z,18.07
2017-10-16T17:57:45.189Z,20.53
2017-10-16T18:00:11.708Z,17.50
2017-10-16T18:02:38.172Z,16.83
2017-10-16T18:05:04.601Z,15.53
2017-10-16T18:07:31.445Z,15.40
2017-10-16T18:09:57.940Z,15.90
2017-10-16T18:12:24.777Z,15.20
2017-10-16T18:14:51.508Z,15.03
2017-10-16T18:17:18.093Z,15.73
2017-10-16T18:19:44.688Z,13.53
2017-10-16T18:22:11.132Z,14.30
2017-10-16T18:24:37.744Z,13.00
2017-10-16T18:27:04.212Z,13.73
2017-10-16T18:29:30.672Z,14.97
2017-10-16T18:31:57.150Z,13.43
2017-10-16T18:34:23.635Z,15.90
2017-10-16T18:36:50.113Z,14.57
2017-10-16T18:39:16.557Z,14.73
2017-10-16T18:41:43.080Z,14.00
2017-10-16T18:44:09.542Z,13.77
2017-10-16T18:46:36.017Z,13.70
2017-10-16T18:49:02.484Z,14.77
2017-10-16T18:51:28.904Z,15.07
2017-10-16T18:53:56.177Z,15.60
2017-10-16T18:56:22.601Z,12.47
2017-10-16T18:58:49.824Z,11.17
2017-10-16T19:01:16.369Z,11.47
2017-10-16T19:03:42.764Z,12.30
2017-10-16T19:06:09.245Z,12.53
2017-10-16T19:08:36.107Z,12.97
2017-10-16T19:11:02.612Z,14.90
2017-10-16T19:13:29.972Z,16.13
2017-10-16T19:15:57.170Z,12.53
2017-10-16T19:18:23.641Z,12.80
2017-10-16T19:20:50.151Z,14.13
2017-10-16T19:23:16.624Z,15.27
2017-10-16T19:25:44.080Z,13.00
2017-10-16T19:28:11.468Z,14.50
2017-10-16T19:30:38.775Z,14.10
2017-10-16T19:33:05.505Z,13.73
2017-10-16T19:35:32.209Z,13.43
2017-10-16T19:37:58.853Z,13.33
2017-10-16T19:40:25.300Z,14.47
2017-10-16T19:42:51.825Z,18.23
2017-10-16T19:45:18.331Z,12.90
2017-10-16T19:47:45.137Z,14.60
2017-10-16T19:50:11.603Z,14.90
2017-10-16T19:52:39.305Z,14.83
2017-10-16T19:55:05.816Z,14.63
2017-10-16T19:57:32.581Z,15.40
2017-10-16T19:59:59.200Z,15.33
2017-10-16T20:02:25.844Z,16.60
2017-10-16T20:04:52.464Z,15.30
2017-10-16T20:07:19.025Z,19.77
2017-10-16T20:09:45.745Z,15.10
2017-10-16T20:12:12.404Z,13.60
2017-10-16T20:14:39.094Z,15.53
2017-10-16T20:17:06.376Z,15.33
2017-10-16T20:19:32.920Z,16.37
2017-10-16T20:21:59.445Z,13.00
2017-10-16T20:24:25.987Z,14.40
2017-10-16T20:26:52.692Z,15.00
2017-10-16T20:29:19.229Z,14.87
2017-10-16T20:31:46.408Z,13.60
2017-10-16T20:34:13.068Z,13.33
2017-10-16T20:36:39.766Z,13.70
2017-10-16T20:39:06.478Z,16.53
2017-10-16T20:41:33.329Z,15.53
2017-10-16T20:44:00.022Z,13.43
2017-10-16T20:46:26.968Z,12.23
2017-10-16T20:48:53.863Z,13.70
2017-10-16T20:51:20.490Z,13.13
2017-10-16T20:53:47.976Z,14.37
2017-10-16T20:56:14.790Z,15.93
2017-10-16T20:58:41.593Z,17.17
2017-10-16T21:01:09.307Z,13.93
2017-10-16T21:03:36.204Z,14.93
2017-10-16T21:06:03.050Z,14.00
2017-10-16T21:08:30.466Z,14.50
2017-10-16T21:10:57.782Z,16.53
2017-10-16T21:13:24.409Z,14.23
2017-10-16T21:15:50.980Z,13.03
2017-10-16T21:18:18.198Z,13.27
2017-10-16T21:20:44.912Z,13.17
2017-10-16T21:23:11.437Z,13.87
2017-10-16T21:25:37.916Z,14.50
2017-10-16T21:28:04.379Z,18.23
2017-10-16T21:30:32.126Z,15.33
2017-10-16T21:32:58.712Z,14.80
2017-10-16T21:35:25.928Z,13.60
2017-10-16T21:37:53.124Z,17.20
2017-10-16T21:40:20.320Z,15.90
2017-10-16T21:42:46.736Z,15.60
2017-10-16T21:45:13.312Z,15.37
2017-10-16T21:47:39.752Z,15.37
2017-10-16T21:50:06.203Z,14.30
2017-10-16T21:52:32.648Z,15.90
2017-10-16T21:54:59.106Z,15.17
2017-10-16T21:57:25.556Z,14.80
2017-10-16T21:59:52.021Z,13.57
2017-10-16T22:02:18.444Z,15.67
2017-10-16T22:04:44.985Z,13.90
2017-10-16T22:07:11.427Z,15.63
2017-10-16T22:09:37.872Z,14.47
2017-10-16T22:12:04.333Z,14.67
2017-10-16T22:14:30.821Z,15.60
2017-10-16T22:16:57.405Z,15.70
2017-10-16T22:19:24.625Z,16.27
2017-10-16T22:21:51.067Z,16.37
2017-10-16T22:24:17.569Z,20.03
2017-10-16T22:26:44.092Z,16.03
2017-10-16T22:29:11.280Z,17.07
2017-10-16T22:31:37.820Z,15.43
2017-10-16T22:34:04.312Z,16.00
2017-10-16T22:36:31.487Z,16.57
2017-10-16T22:38:57.977Z,15.07
2017-10-16T22:41:24.408Z,15.10
2017-10-16T22:43:50.848Z,17.13
2017-10-16T22:46:17.323Z,15.33
2017-10-16T22:48:44.572Z,16.47
2017-10-16T22:51:11.016Z,14.43
2017-10-16T22:53:37.486Z,16.50
2017-10-16T22:56:03.969Z,14.50
2017-10-16T22:58:30.412Z,15.63
2017-10-16T23:00:56.860Z,15.07
2017-10-16T23:03:23.325Z,14.97
2017-10-16T23:05:49.889Z,14.40
2017-10-16T23:08:17.131Z,16.17
2017-10-16T23:10:43.593Z,16.30
2017-10-16T23:13:10.042Z,15.27
2017-10-16T23:15:36.535Z,15.00
2017-10-16T23:18:02.996Z,14.07
2017-10-16T23:20:29.436Z,15.40
2017-10-16T23:22:55.892Z,13.90
2017-10-16T23:25:22.369Z,13.83
2017-10-16T23:27:49.593Z,15.93
2017-10-16T23:30:16.060Z,14.70
2017-10-16T23:32:43.247Z,15.20
2017-10-16T23:35:09.760Z,13.80
2017-10-16T23:37:36.292Z,13.93
2017-10-16T23:40:03.537Z,15.07
2017-10-16T23:42:30.036Z,15.40
2017-10-16T23:44:56.639Z,14.10
2017-10-16T23:47:23.059Z,15.93
2017-10-16T23:49:49.488Z,13.40
2017-10-16T23:52:15.952Z,13.80
2017-10-16T23:54:42.432Z,13.93
2017-10-16T23:57:09.643Z,14.23
2017-10-16T23:59:36.127Z,13.97
